createdAt,value
2024-03-04T00:00:17.483Z,19.67
2024-03-04T00:03:06.134Z,19.98
2024-03-04T00:05:36.733Z,19.73
2024-03-04T00:08:05.747Z,19.45
2024-03-04T00:10:34.209Z,19.50
2024-03-04T00:13:02.993Z,19.20
2024-03-04T00:15:31.316Z,20.15
2024-03-04T00:18:01.149Z,20.15
2024-03-04T00:20:29.674Z,19.73
2024-03-04T00:22:58.431Z,19.88
2024-03-04T00:25:26.885Z,20.35
2024-03-04T00:27:55.714Z,19.27
2024-03-04T00:30:25.752Z,19.05
2024-03-04T00:32:54.385Z,19.77
2024-03-04T00:35:22.938Z,20.15
2024-03-04T00:37:51.685Z,20.48
2024-03-04T00:40:20.209Z,19.52
2024-03-04T00:42:49.246Z,19.83
2024-03-04T00:45:17.545Z,19.98
2024-03-04T00:47:46.358Z,20.10
2024-03-04T00:50:14.936Z,19.30
2024-03-04T00:52:43.890Z,20.35
2024-03-04T00:55:12.205Z,20.88
2024-03-04T00:57:40.894Z,20.15
2024-03-04T01:00:15.901Z,20.80
2024-03-04T01:02:45.632Z,21.17
2024-03-04T01:05:13.976Z,20.10
2024-03-04T01:07:42.757Z,20.58
2024-03-04T01:10:11.357Z,20.90
2024-03-04T01:12:40.142Z,20.02
2024-03-04T01:15:09.391Z,20.95
2024-03-04T01:17:37.936Z,21.17
2024-03-04T01:20:11.330Z,20.05
2024-03-04T01:22:40.920Z,20.58
2024-03-04T01:25:10.677Z,19.88
2024-03-04T01:27:39.578Z,19.85
2024-03-04T01:30:10.767Z,19.63
2024-03-04T01:32:39.500Z,19.35
2024-03-04T01:35:09.148Z,19.92
2024-03-04T01:37:39.872Z,18.15
2024-03-04T01:40:08.763Z,18.52
2024-03-04T01:42:37.507Z,19.08
2024-03-04T01:45:17.039Z,17.80
2024-03-04T01:47:45.751Z,19.63
2024-03-04T01:50:14.115Z,19.40
2024-03-04T01:52:43.281Z,19.52
2024-03-04T01:55:12.347Z,18.90
2024-03-04T01:57:41.074Z,19.17
2024-03-04T02:00:12.889Z,18.92
2024-03-04T02:02:42.878Z,19.00
2024-03-04T02:05:13.728Z,18.05
2024-03-04T02:07:43.227Z,18.25
2024-03-04T02:10:11.886Z,18.83
2024-03-04T02:12:40.947Z,18.77
2024-03-04T02:15:10.166Z,19.13
2024-03-04T02:17:39.133Z,18.05
2024-03-04T02:20:12.139Z,19.25
2024-03-04T02:22:41.032Z,19.33
2024-03-04T02:25:13.086Z,19.65
2024-03-04T02:27:43.659Z,19.13
2024-03-04T02:30:12.563Z,18.75
2024-03-04T02:32:42.941Z,17.95
2024-03-04T02:35:11.456Z,17.60
2024-03-04T02:37:40.368Z,17.70
2024-03-04T02:40:09.338Z,18.17
2024-03-04T02:42:37.927Z,19.02
2024-03-04T02:45:06.899Z,18.83
2024-03-04T02:47:35.526Z,18.55
2024-03-04T02:50:04.737Z,18.75
2024-03-04T02:52:33.484Z,17.70
2024-03-04T02:55:02.668Z,17.33
2024-03-04T02:57:33.346Z,17.13
2024-03-04T03:00:01.739Z,17.30
2024-03-04T03:02:33.766Z,17.70
2024-03-04T03:05:02.031Z,17.35
2024-03-04T03:07:30.883Z,16.58
2024-03-04T03:09:59.124Z,16.40
2024-03-04T03:12:27.674Z,16.67
2024-03-04T03:14:57.189Z,17.17
2024-03-04T03:17:27.015Z,17.67
2024-03-04T03:19:55.348Z,16.98
2024-03-04T03:22:23.976Z,16.95
2024-03-04T03:24:52.213Z,16.45
2024-03-04T03:27:21.090Z,17.25
2024-03-04T03:29:49.937Z,16.30
2024-03-04T03:32:18.574Z,15.75
2024-03-04T03:34:46.827Z,15.75
2024-03-04T03:37:15.433Z,16.40
2024-03-04T03:39:45.290Z,15.52
2024-03-04T03:42:14.182Z,15.27
2024-03-04T03:44:42.508Z,15.77
2024-03-04T03:47:11.169Z,15.45
2024-03-04T03:49:39.646Z,15.13
2024-03-04T03:52:08.499Z,16.17
2024-03-04T03:54:36.800Z,15.45
2024-03-04T03:57:05.440Z,15.18
2024-03-04T03:59:33.900Z,16.27
2024-03-04T04:02:02.511Z,15.55
2024-03-04T04:04:30.885Z,15.55
2024-03-04T04:06:59.533Z,16.90
2024-03-04T04:09:28.155Z,17.98
2024-03-04T04:11:56.844Z,19.77
2024-03-04T04:14:25.168Z,15.90
2024-03-04T04:16:53.771Z,15.38
2024-03-04T04:19:22.259Z,15.15
2024-03-04T04:21:51.354Z,15.50
2024-03-04T04:24:19.700Z,15.73
2024-03-04T04:26:48.420Z,15.93
2024-03-04T04:29:16.965Z,15.63
2024-03-04T04:31:45.571Z,16.25
2024-03-04T04:34:14.148Z,16.27
2024-03-04T04:39:40.779Z,15.57
2024-03-04T04:42:09.417Z,16.77
2024-03-04T04:44:37.869Z,15.45
2024-03-04T04:47:06.409Z,15.30
2024-03-04T04:49:34.754Z,15.45
2024-03-04T04:52:04.281Z,16.33
2024-03-04T04:54:32.711Z,16.48
2024-03-04T04:57:01.394Z,15.82
2024-03-04T04:59:29.729Z,16.08
2024-03-04T05:01:58.903Z,15.18
2024-03-04T05:04:43.421Z,15.25
2024-03-04T05:07:16.047Z,14.80
2024-03-04T05:09:44.276Z,15.55
2024-03-04T05:12:12.769Z,15.05
2024-03-04T05:14:41.110Z,14.85
2024-03-04T05:17:10.059Z,14.45
2024-03-04T05:19:39.097Z,14.45
2024-03-04T05:22:09.645Z,15.07
2024-03-04T05:24:37.876Z,18.40
2024-03-04T05:27:06.542Z,17.23
2024-03-04T05:29:34.826Z,16.70
2024-03-04T05:32:05.569Z,15.45
2024-03-04T05:34:34.256Z,14.75
2024-03-04T05:37:02.929Z,14.27
2024-03-04T05:39:33.060Z,13.50
2024-03-04T05:42:01.957Z,13.88
2024-03-04T05:44:30.419Z,13.40
2024-03-04T05:46:59.109Z,15.82
2024-03-04T05:49:27.527Z,15.73
2024-03-04T05:51:56.607Z,15.88
2024-03-04T05:54:24.842Z,14.02
2024-03-04T05:56:53.460Z,13.82
2024-03-04T05:59:21.928Z,13.60
2024-03-04T06:01:50.659Z,13.23
2024-03-04T06:04:19.073Z,12.40
2024-03-04T06:06:48.624Z,14.02
2024-03-04T06:09:18.113Z,12.60
2024-03-04T06:11:47.477Z,13.18
2024-03-04T06:14:16.116Z,12.80
2024-03-04T06:16:44.741Z,13.15
2024-03-04T06:19:13.099Z,12.52
2024-03-04T06:21:43.779Z,12.40
2024-03-04T06:24:13.557Z,12.98
2024-03-04T06:26:42.268Z,13.25
2024-03-04T06:29:10.571Z,13.02
2024-03-04T06:31:39.260Z,13.90
2024-03-04T06:34:16.601Z,13.63
2024-03-04T06:36:52.004Z,12.45
2024-03-04T06:39:23.122Z,14.15
2024-03-04T06:41:55.486Z,12.90
2024-03-04T06:44:23.895Z,13.85
2024-03-04T06:46:52.515Z,13.60
2024-03-04T06:49:20.952Z,13.70
2024-03-04T06:51:49.660Z,12.98
2024-03-04T06:54:17.893Z,13.25
2024-03-04T06:56:46.471Z,12.50
2024-03-04T06:59:18.412Z,13.57
2024-03-04T07:01:47.151Z,14.48
2024-03-04T07:04:15.572Z,13.15
2024-03-04T07:06:44.147Z,13.57
2024-03-04T07:09:12.477Z,13.23
2024-03-04T07:11:41.253Z,13.48
2024-03-04T07:14:09.656Z,12.82
2024-03-04T07:16:38.236Z,12.70
2024-03-04T07:19:06.607Z,13.40
2024-03-04T07:21:35.488Z,14.82
2024-03-04T07:24:04.078Z,15.15
2024-03-04T07:26:32.681Z,14.32
2024-03-04T07:29:02.129Z,13.82
2024-03-04T07:31:30.712Z,13.82
2024-03-04T07:33:59.183Z,13.15
2024-03-04T07:36:27.914Z,13.48
2024-03-04T07:38:56.232Z,14.70
2024-03-04T07:41:26.843Z,14.18
2024-03-04T07:43:57.038Z,13.18
2024-03-04T07:46:26.102Z,13.52
2024-03-04T07:48:54.516Z,13.82
2024-03-04T07:51:23.159Z,14.95
2024-03-04T07:53:51.365Z,14.50
2024-03-04T07:56:20.051Z,13.75
2024-03-04T07:58:48.437Z,13.80
2024-03-04T08:01:17.101Z,14.77
2024-03-04T08:03:46.585Z,14.30
2024-03-04T08:06:15.314Z,15.02
2024-03-04T08:08:45.755Z,14.20
2024-03-04T08:11:14.414Z,14.93
2024-03-04T08:13:42.781Z,14.70
2024-03-04T08:16:11.430Z,13.70
2024-03-04T08:18:39.824Z,12.90
2024-03-04T08:21:14.903Z,14.10
2024-03-04T08:23:43.882Z,13.13
2024-03-04T08:26:12.560Z,13.73
2024-03-04T08:28:41.885Z,13.93
2024-03-04T08:31:10.539Z,14.63
2024-03-04T08:33:38.836Z,13.50
2024-03-04T08:36:07.807Z,14.63
2024-03-04T08:38:36.053Z,15.20
2024-03-04T08:41:04.668Z,15.20
2024-03-04T08:43:33.657Z,16.48
2024-03-04T08:46:02.293Z,15.45
2024-03-04T08:48:30.580Z,14.40
2024-03-04T08:50:59.218Z,13.93
2024-03-04T08:53:27.606Z,14.80
2024-03-04T08:55:57.530Z,14.52
2024-03-04T08:58:25.940Z,14.38
2024-03-04T09:00:54.595Z,14.55
2024-03-04T09:03:22.917Z,15.15
2024-03-04T09:05:51.793Z,14.20
2024-03-04T09:08:20.234Z,14.20
2024-03-04T09:10:51.422Z,13.65
2024-03-04T09:13:20.690Z,15.73
2024-03-04T09:15:49.307Z,15.57
2024-03-04T09:18:17.883Z,16.27
2024-03-04T09:20:46.494Z,15.60
2024-03-04T09:23:16.296Z,14.27
2024-03-04T09:25:45.173Z,15.45
2024-03-04T09:28:15.524Z,14.68
2024-03-04T09:30:44.395Z,17.88
2024-03-04T09:33:12.873Z,16.33
2024-03-04T09:35:41.638Z,15.65
2024-03-04T09:38:10.025Z,14.70
2024-03-04T09:40:38.760Z,14.57
2024-03-04T09:43:11.272Z,14.85
2024-03-04T09:45:42.390Z,15.40
2024-03-04T09:48:14.759Z,16.13
2024-03-04T09:50:44.189Z,15.73
2024-03-04T09:53:16.412Z,15.15
2024-03-04T09:55:45.124Z,15.50
2024-03-04T09:58:13.877Z,14.90
2024-03-04T10:00:44.132Z,15.98
2024-03-04T10:03:12.526Z,16.08
2024-03-04T10:05:41.517Z,15.88
2024-03-04T10:08:09.864Z,14.20
2024-03-04T10:10:38.539Z,15.48
2024-03-04T10:13:11.917Z,14.85
2024-03-04T10:15:41.110Z,15.68
2024-03-04T10:18:11.874Z,15.30
2024-03-04T10:20:41.247Z,15.18
2024-03-04T10:23:10.498Z,15.43
2024-03-04T10:25:39.677Z,15.32
2024-03-04T10:28:08.186Z,15.10
2024-03-04T10:30:36.842Z,15.30
2024-03-04T10:33:05.540Z,15.98
2024-03-04T10:35:35.591Z,14.85
2024-03-04T10:38:04.952Z,15.93
2024-03-04T10:40:36.088Z,16.95
2024-03-04T10:43:06.000Z,15.80
2024-03-04T10:45:35.828Z,16.17
2024-03-04T10:48:05.913Z,15.50
2024-03-04T10:50:35.314Z,20.50
2024-03-04T10:53:04.445Z,16.73
2024-03-04T10:55:33.625Z,16.63
2024-03-04T10:58:03.966Z,15.27
2024-03-04T11:00:34.720Z,16.27
2024-03-04T11:03:03.769Z,18.10
2024-03-04T11:05:35.163Z,16.67
2024-03-04T11:08:12.865Z,16.63
2024-03-04T11:10:49.453Z,19.10
2024-03-04T11:13:36.120Z,17.83
2024-03-04T11:16:32.859Z,16.30
2024-03-04T11:19:22.744Z,18.25
2024-03-04T11:21:54.452Z,17.33
2024-03-04T11:24:23.716Z,16.95
2024-03-04T11:26:53.357Z,17.25
2024-03-04T11:29:22.697Z,17.98
2024-03-04T11:31:58.053Z,18.00
2024-03-04T11:34:26.496Z,17.45
2024-03-04T11:36:59.961Z,17.33
2024-03-04T11:39:29.008Z,16.05
2024-03-04T11:41:57.976Z,16.48
2024-03-04T11:44:28.993Z,15.73
2024-03-04T11:46:58.654Z,16.30
2024-03-04T11:49:29.750Z,18.05
2024-03-04T11:52:08.710Z,15.85
2024-03-04T11:54:37.189Z,15.90
2024-03-04T11:57:08.072Z,20.70
2024-03-04T11:59:41.000Z,17.17
2024-03-04T12:02:11.218Z,16.85
2024-03-04T12:04:42.378Z,16.13
2024-03-04T12:07:11.442Z,19.83
2024-03-04T12:09:51.759Z,20.83
2024-03-04T12:12:31.425Z,16.55
2024-03-04T12:15:00.009Z,17.75
2024-03-04T12:17:29.696Z,18.95
2024-03-04T12:19:58.999Z,19.85
2024-03-04T12:22:32.030Z,21.35
2024-03-04T12:25:11.251Z,18.45
2024-03-04T12:27:43.211Z,18.52
2024-03-04T12:30:19.580Z,18.02
2024-03-04T12:32:50.783Z,21.40
2024-03-04T12:35:32.623Z,18.37
2024-03-04T12:38:03.813Z,18.63
2024-03-04T12:40:32.330Z,18.23
2024-03-04T12:43:03.954Z,19.13
2024-03-04T12:45:33.656Z,18.42
2024-03-04T12:48:02.542Z,18.33
2024-03-04T12:50:31.666Z,19.50
2024-03-04T12:53:00.882Z,18.15
2024-03-04T12:55:30.611Z,21.08
2024-03-04T12:57:59.921Z,19.10
2024-03-04T13:00:28.955Z,20.25
2024-03-04T13:02:57.845Z,20.25
2024-03-04T13:05:26.405Z,20.42
2024-03-04T13:07:56.125Z,18.63
2024-03-04T13:10:26.582Z,19.90
2024-03-04T13:12:55.799Z,20.20
2024-03-04T13:15:24.314Z,19.33
2024-03-04T13:17:53.858Z,20.23
2024-03-04T13:20:23.444Z,20.65
2024-03-04T13:22:52.341Z,19.27
2024-03-04T13:25:24.108Z,19.20
2024-03-04T13:30:22.692Z,18.45
2024-03-04T13:32:51.636Z,18.42
2024-03-04T13:35:19.964Z,18.83
2024-03-04T13:37:51.628Z,20.20
2024-03-04T13:40:20.629Z,21.05
2024-03-04T13:42:49.198Z,20.10
2024-03-04T13:45:17.573Z,21.17
2024-03-04T13:47:48.675Z,19.20
2024-03-04T13:50:17.433Z,20.07
2024-03-04T13:52:46.115Z,18.83
2024-03-04T13:58:25.636Z,18.83
2024-03-04T14:00:57.958Z,20.88
2024-03-04T14:03:29.919Z,19.23
2024-03-04T14:05:58.474Z,19.95
2024-03-04T14:08:27.034Z,19.45
2024-03-04T14:10:56.068Z,20.10
2024-03-04T14:13:24.790Z,20.98
2024-03-04T14:15:53.348Z,20.65
2024-03-04T14:18:22.117Z,21.02
2024-03-04T14:20:51.892Z,21.45
2024-03-04T14:23:20.564Z,19.98
2024-03-04T14:25:48.845Z,20.42
2024-03-04T14:28:19.008Z,20.10
2024-03-04T14:30:47.615Z,19.52
2024-03-04T14:33:16.378Z,18.83
2024-03-04T14:35:45.001Z,18.55
2024-03-04T14:38:13.746Z,19.50
2024-03-04T14:40:43.158Z,19.08
2024-03-04T14:43:11.943Z,20.02
2024-03-04T14:45:40.500Z,19.77
2024-03-04T14:48:10.251Z,18.75
2024-03-04T14:50:38.746Z,20.00
2024-03-04T14:53:07.477Z,22.33
2024-03-04T14:55:35.900Z,23.80
2024-03-04T14:58:05.179Z,36.58
2024-03-04T15:00:55.693Z,24.20
2024-03-04T15:03:25.822Z,19.88
2024-03-04T15:05:56.347Z,20.92
2024-03-04T15:08:25.078Z,19.95
2024-03-04T15:10:53.635Z,22.25
2024-03-04T15:13:22.806Z,21.08
2024-03-04T15:15:51.523Z,20.88
2024-03-04T15:18:22.504Z,20.60
2024-03-04T15:20:54.577Z,22.42
2024-03-04T15:23:23.593Z,22.58
2024-03-04T15:25:52.107Z,20.80
2024-03-04T15:28:20.930Z,20.45
2024-03-04T15:30:49.252Z,23.08
2024-03-04T15:33:18.569Z,21.65
2024-03-04T15:35:47.098Z,19.92
2024-03-04T15:38:16.762Z,19.77
2024-03-04T15:40:45.776Z,18.90
2024-03-04T15:43:16.005Z,20.17
2024-03-04T15:45:46.121Z,22.33
2024-03-04T15:48:14.791Z,20.75
2024-03-04T15:50:43.038Z,21.70
2024-03-04T15:53:11.717Z,21.67
2024-03-04T15:55:40.684Z,21.08
2024-03-04T15:58:10.792Z,19.65
2024-03-04T16:00:40.560Z,20.27
2024-03-04T16:03:09.561Z,20.63
2024-03-04T16:05:38.261Z,18.85
2024-03-04T16:08:07.088Z,20.42
2024-03-04T16:10:35.800Z,19.00
2024-03-04T16:13:05.000Z,20.95
2024-03-04T16:15:41.153Z,20.73
2024-03-04T16:18:17.011Z,21.10
2024-03-04T16:20:45.416Z,19.65
2024-03-04T16:23:14.302Z,19.52
2024-03-04T16:25:42.788Z,20.02
2024-03-04T16:28:12.780Z,19.55
2024-03-04T16:30:42.156Z,20.00
2024-03-04T16:33:10.831Z,20.67
2024-03-04T16:35:39.073Z,20.92
2024-03-04T16:38:10.011Z,19.58
2024-03-04T16:40:38.587Z,20.45
2024-03-04T16:43:07.217Z,20.00
2024-03-04T16:45:36.949Z,20.55
2024-03-04T16:48:06.107Z,19.23
2024-03-04T16:50:34.495Z,19.23
2024-03-04T16:53:03.152Z,20.20
2024-03-04T16:55:34.799Z,19.40
2024-03-04T16:58:04.708Z,19.40
2024-03-04T17:00:33.557Z,19.33
2024-03-04T17:03:05.275Z,20.55
2024-03-04T17:05:34.724Z,19.60
2024-03-04T17:08:04.523Z,18.83
2024-03-04T17:10:32.968Z,19.20
2024-03-04T17:13:02.469Z,18.20
2024-03-04T17:15:30.914Z,19.67
2024-03-04T17:17:59.714Z,18.75
2024-03-04T17:20:29.381Z,19.33
2024-03-04T17:22:58.112Z,20.65
2024-03-04T17:25:26.956Z,18.33
2024-03-04T17:27:55.810Z,18.08
2024-03-04T17:30:24.109Z,18.02
2024-03-04T17:32:52.915Z,19.20
2024-03-04T17:35:21.299Z,20.17
2024-03-04T17:37:49.930Z,19.70
2024-03-04T17:40:18.682Z,20.70
2024-03-04T17:42:47.660Z,19.35
2024-03-04T17:45:16.224Z,21.20
2024-03-04T17:47:48.411Z,24.15
2024-03-04T17:50:18.483Z,21.73
2024-03-04T17:52:49.505Z,20.60
2024-03-04T17:55:43.321Z,21.25
2024-03-04T18:01:52.289Z,22.50
2024-03-04T18:04:31.487Z,20.90
2024-03-04T18:07:13.185Z,21.20
2024-03-04T18:09:43.790Z,25.38
2024-03-04T18:12:17.405Z,23.75
2024-03-04T18:15:07.205Z,21.73
2024-03-04T18:17:39.367Z,21.90
2024-03-04T18:20:11.625Z,23.25
2024-03-04T18:22:42.934Z,22.27
2024-03-04T18:25:13.961Z,22.75
2024-03-04T18:28:34.339Z,22.50
2024-03-04T18:31:33.535Z,22.73
2024-03-04T18:34:03.369Z,22.75
2024-03-04T18:36:48.678Z,22.45
2024-03-04T18:39:17.196Z,23.90
2024-03-04T18:42:12.209Z,22.98
2024-03-04T18:44:48.028Z,26.60
2024-03-04T18:47:29.949Z,25.35
2024-03-04T18:50:01.129Z,29.10
2024-03-04T18:52:33.469Z,27.50
2024-03-04T18:55:01.918Z,26.15
2024-03-04T18:57:34.303Z,25.23
2024-03-04T19:03:30.604Z,25.83
2024-03-04T19:06:45.611Z,35.47
2024-03-04T19:10:04.795Z,27.55
2024-03-04T19:12:41.022Z,27.08
2024-03-04T19:16:00.777Z,29.92
2024-03-04T19:19:10.363Z,28.00
2024-03-04T19:21:43.612Z,25.95
2024-03-04T19:24:12.057Z,27.92
2024-03-04T19:26:55.089Z,28.23
2024-03-04T19:29:29.690Z,28.50
2024-03-04T19:32:05.132Z,28.08
2024-03-04T19:34:35.418Z,29.92
2024-03-04T19:37:08.653Z,30.30
2024-03-04T20:09:22.927Z,29.77
2024-03-04T20:12:02.751Z,32.42
2024-03-04T20:14:31.969Z,39.00
2024-03-04T20:18:31.270Z,39.42
2024-03-04T20:21:00.691Z,38.08
2024-03-04T20:23:29.318Z,34.42
2024-03-04T20:29:45.915Z,31.83
2024-03-04T20:34:38.075Z,31.33
2024-03-04T20:37:41.140Z,27.02
2024-03-04T20:40:12.909Z,27.00
2024-03-04T20:42:41.847Z,28.00
2024-03-04T20:45:12.409Z,29.17
2024-03-04T20:47:49.914Z,35.80
2024-03-04T20:50:48.386Z,29.80
2024-03-04T21:11:22.817Z,28.17
2024-03-04T21:14:03.306Z,26.05
2024-03-04T21:17:04.744Z,26.20
2024-03-04T21:19:54.108Z,27.10
2024-03-04T21:23:21.861Z,26.42
2024-03-04T21:26:12.498Z,26.17
2024-03-04T21:28:43.951Z,25.23
2024-03-04T21:32:06.346Z,24.88
2024-03-04T21:34:38.183Z,23.30
2024-03-04T21:37:11.769Z,23.00
2024-03-04T21:39:45.504Z,21.92
2024-03-04T21:42:15.005Z,23.17
2024-03-04T21:44:43.308Z,21.45
2024-03-04T21:47:12.017Z,22.23
2024-03-04T21:49:40.372Z,22.55
2024-03-04T21:52:09.382Z,21.20
2024-03-04T21:54:37.862Z,21.10
2024-03-04T21:57:06.663Z,22.02
2024-03-04T21:59:34.899Z,22.08
2024-03-04T22:02:05.816Z,21.92
2024-03-04T22:04:59.323Z,21.40
2024-03-04T22:07:28.127Z,22.98
2024-03-04T22:09:59.441Z,21.27
2024-03-04T22:12:28.125Z,21.45
2024-03-04T22:14:56.401Z,21.60
2024-03-04T22:17:25.013Z,20.35
2024-03-04T22:19:54.728Z,21.05
2024-03-04T22:22:23.537Z,20.95
2024-03-04T22:24:51.984Z,20.60
2024-03-04T22:27:21.862Z,20.52
2024-03-04T22:29:50.173Z,20.15
2024-03-04T22:32:19.119Z,20.55
2024-03-04T22:34:47.526Z,21.92
2024-03-04T22:37:16.466Z,20.27
2024-03-04T22:39:46.138Z,20.10
2024-03-04T22:42:14.707Z,20.60
2024-03-04T22:44:42.907Z,21.25
2024-03-04T22:47:12.663Z,19.83
2024-03-04T22:49:41.212Z,21.17
2024-03-04T22:52:10.556Z,20.42
2024-03-04T22:54:38.914Z,21.15
2024-03-04T22:57:07.599Z,19.40
2024-03-04T22:59:39.980Z,19.17
2024-03-04T23:02:10.461Z,19.80
2024-03-04T23:04:40.234Z,20.85
2024-03-04T23:07:09.011Z,20.63
2024-03-04T23:28:11.634Z,20.42
2024-03-04T23:30:42.824Z,21.80
2024-03-04T23:33:11.221Z,23.30
2024-03-04T23:35:40.023Z,22.98
2024-03-04T23:38:08.314Z,22.83
2024-03-04T23:40:37.088Z,22.48
2024-03-04T23:43:05.372Z,22.15
2024-03-04T23:45:33.894Z,21.58
2024-03-04T23:48:02.266Z,23.17
2024-03-04T23:50:30.833Z,22.30
2024-03-04T23:52:59.357Z,21.25
2024-03-04T23:55:28.075Z,22.25
2024-03-04T23:57:56.484Z,21.45
